createdAt,value
2023-04-18T00:00:36.964Z,11.57
2023-04-18T00:03:04.663Z,9.57
2023-04-18T00:05:31.965Z,12.50
2023-04-18T00:07:58.767Z,8.88
2023-04-18T00:10:25.859Z,12.00
2023-04-18T00:12:52.633Z,10.50
2023-04-18T00:15:19.419Z,9.23
2023-04-18T00:17:45.957Z,10.77
2023-04-18T00:20:12.939Z,10.77
2023-04-18T00:22:43.058Z,11.40
2023-04-18T00:25:11.132Z,10.93
2023-04-18T00:27:41.628Z,11.52
2023-04-18T00:30:09.752Z,13.70
2023-04-18T00:32:38.185Z,13.68
2023-04-18T00:35:05.393Z,12.10
2023-04-18T00:37:31.985Z,11.38
2023-04-18T00:39:59.796Z,12.23
2023-04-18T00:42:28.897Z,13.73
2023-04-18T00:44:55.583Z,15.65
2023-04-18T00:47:22.847Z,10.93
2023-04-18T00:49:51.322Z,11.60
2023-04-18T00:52:18.802Z,12.02
2023-04-18T00:54:48.041Z,13.18
2023-04-18T00:57:15.137Z,12.50
2023-04-18T00:59:42.663Z,18.98
2023-04-18T01:02:09.606Z,15.85
2023-04-18T01:04:37.341Z,12.30
2023-04-18T01:07:04.902Z,14.82
2023-04-18T01:09:31.808Z,13.55
2023-04-18T01:11:58.394Z,14.35
2023-04-18T01:14:24.945Z,13.52
2023-04-18T01:16:51.784Z,13.93
2023-04-18T01:19:19.300Z,14.85
2023-04-18T01:21:46.041Z,13.85
2023-04-18T01:24:17.688Z,18.80
2023-04-18T01:26:49.696Z,11.60
2023-04-18T01:29:16.523Z,13.55
2023-04-18T01:31:44.216Z,14.98
2023-04-18T01:34:11.689Z,13.77
2023-04-18T01:36:41.155Z,13.90
2023-04-18T01:39:11.131Z,12.93
2023-04-18T01:41:38.096Z,13.57
2023-04-18T01:44:05.117Z,13.25
2023-04-18T01:46:32.270Z,13.52
2023-04-18T01:49:01.160Z,14.90
2023-04-18T01:51:28.009Z,13.10
2023-04-18T01:53:55.259Z,14.30
2023-04-18T01:56:22.251Z,13.93
2023-04-18T01:58:48.780Z,15.13
2023-04-18T02:01:15.777Z,17.00
2023-04-18T02:03:43.895Z,13.07
2023-04-18T02:06:13.294Z,17.40
2023-04-18T02:08:41.314Z,14.35
2023-04-18T02:11:08.072Z,11.80
2023-04-18T02:13:34.914Z,13.82
2023-04-18T02:16:11.409Z,14.60
2023-04-18T02:18:40.119Z,15.23
2023-04-18T02:21:07.249Z,17.02
2023-04-18T02:23:33.747Z,16.48
2023-04-18T02:26:00.705Z,14.88
2023-04-18T02:28:28.804Z,19.92
2023-04-18T02:30:56.132Z,16.65
2023-04-18T02:33:23.931Z,16.73
2023-04-18T02:35:51.968Z,15.07
2023-04-18T02:38:18.568Z,18.55
2023-04-18T02:40:46.812Z,15.95
2023-04-18T02:43:13.601Z,14.48
2023-04-18T02:45:40.539Z,19.55
2023-04-18T02:48:08.523Z,15.50
2023-04-18T02:50:36.091Z,16.02
2023-04-18T02:53:02.923Z,13.25
2023-04-18T02:55:45.085Z,17.48
2023-04-18T02:58:12.113Z,16.50
2023-04-18T03:00:58.185Z,15.45
2023-04-18T03:03:43.303Z,13.60
2023-04-18T03:06:28.960Z,15.25
2023-04-18T03:08:56.644Z,15.90
2023-04-18T03:11:24.462Z,15.55
2023-04-18T03:13:51.380Z,14.27
2023-04-18T03:16:18.983Z,14.00
2023-04-18T03:18:45.739Z,14.50
2023-04-18T03:21:12.819Z,16.80
2023-04-18T03:23:39.750Z,16.60
2023-04-18T03:26:08.161Z,15.98
2023-04-18T03:28:37.714Z,15.15
2023-04-18T03:31:05.111Z,13.27
2023-04-18T03:33:34.692Z,14.30
2023-04-18T03:36:09.091Z,19.45
2023-04-18T03:38:35.946Z,15.40
2023-04-18T03:41:03.025Z,15.77
2023-04-18T03:43:33.509Z,16.33
2023-04-18T03:46:00.736Z,17.20
2023-04-18T03:48:28.960Z,18.75
2023-04-18T03:50:59.084Z,15.65
2023-04-18T03:53:25.987Z,19.40
2023-04-18T03:55:54.794Z,16.42
2023-04-18T03:58:25.248Z,17.85
2023-04-18T04:00:53.168Z,17.08
2023-04-18T04:03:20.077Z,12.55
2023-04-18T04:05:46.862Z,17.23
2023-04-18T04:08:16.464Z,15.38
2023-04-18T04:10:44.667Z,15.23
2023-04-18T04:13:11.466Z,14.18
2023-04-18T04:15:39.931Z,16.13
2023-04-18T04:18:09.336Z,15.32
2023-04-18T04:20:39.668Z,14.63
2023-04-18T04:23:13.516Z,14.45
2023-04-18T04:25:45.732Z,14.52
2023-04-18T04:28:31.922Z,15.15
2023-04-18T04:31:03.469Z,15.50
2023-04-18T04:33:33.241Z,14.38
2023-04-18T04:36:03.365Z,14.32
2023-04-18T04:38:33.027Z,19.67
2023-04-18T04:41:00.272Z,14.23
2023-04-18T04:43:28.981Z,15.68
2023-04-18T04:45:57.807Z,16.65
2023-04-18T04:48:25.091Z,14.50
2023-04-18T04:50:59.035Z,16.23
2023-04-18T04:53:32.458Z,15.43
2023-04-18T04:56:00.816Z,15.35
2023-04-18T04:58:28.152Z,14.93
2023-04-18T05:01:24.284Z,15.68
2023-04-18T05:03:52.546Z,15.73
2023-04-18T05:06:20.923Z,14.55
2023-04-18T05:08:48.235Z,12.57
2023-04-18T05:11:15.792Z,16.98
2023-04-18T05:13:42.629Z,15.20
2023-04-18T05:16:09.695Z,15.60
2023-04-18T05:18:39.530Z,14.93
2023-04-18T05:21:06.227Z,17.13
2023-04-18T05:23:35.181Z,13.68
2023-04-18T05:26:02.081Z,16.83
2023-04-18T05:28:28.751Z,14.02
2023-04-18T05:31:05.729Z,14.40
2023-04-18T05:33:32.508Z,13.75
2023-04-18T05:35:59.753Z,9.65
2023-04-18T05:38:26.538Z,12.93
2023-04-18T05:40:55.913Z,13.23
2023-04-18T05:43:23.340Z,13.13
2023-04-18T05:45:52.748Z,12.82
2023-04-18T05:48:19.639Z,12.82
2023-04-18T05:50:46.429Z,15.70
2023-04-18T05:53:13.395Z,15.25
2023-04-18T05:55:41.140Z,12.32
2023-04-18T05:58:07.876Z,12.82
2023-04-18T06:00:36.145Z,15.02
2023-04-18T06:03:03.479Z,9.93
2023-04-18T06:05:30.773Z,11.70
2023-04-18T06:07:57.779Z,11.70
2023-04-18T06:10:24.450Z,14.68
2023-04-18T06:12:51.033Z,14.25
2023-04-18T06:15:17.763Z,12.95
2023-04-18T06:17:44.927Z,11.55
2023-04-18T06:20:13.373Z,13.30
2023-04-18T06:22:40.852Z,15.20
2023-04-18T06:25:10.025Z,14.38
2023-04-18T06:27:38.072Z,12.10
2023-04-18T06:30:08.427Z,13.50
2023-04-18T06:32:35.439Z,12.98
2023-04-18T06:35:02.415Z,16.30
2023-04-18T06:37:29.352Z,14.95
2023-04-18T06:39:56.260Z,15.15
2023-04-18T06:42:23.073Z,13.02
2023-04-18T06:44:50.099Z,15.98
2023-04-18T06:47:18.659Z,15.15
2023-04-18T06:49:45.543Z,15.50
2023-04-18T06:52:12.170Z,15.50
2023-04-18T06:54:38.810Z,14.25
2023-04-18T06:57:05.543Z,12.82
2023-04-18T06:59:32.398Z,12.38
2023-04-18T07:01:59.058Z,14.60
2023-04-18T07:04:26.235Z,15.05
2023-04-18T07:06:53.281Z,11.68
2023-04-18T07:09:20.875Z,11.68
2023-04-18T07:11:52.471Z,11.63
2023-04-18T07:14:23.614Z,11.45
2023-04-18T07:16:50.957Z,10.70
2023-04-18T07:19:17.937Z,12.15
2023-04-18T07:21:46.329Z,9.07
2023-04-18T07:24:13.338Z,10.38
2023-04-18T07:26:41.182Z,13.45
2023-04-18T07:29:08.199Z,11.88
2023-04-18T07:31:35.147Z,11.18
2023-04-18T07:34:02.113Z,12.95
2023-04-18T07:36:29.031Z,11.23
2023-04-18T07:38:55.589Z,9.70
2023-04-18T07:41:22.343Z,11.13
2023-04-18T07:43:49.027Z,12.18
2023-04-18T07:46:15.907Z,12.63
2023-04-18T07:48:42.478Z,10.75
2023-04-18T07:51:09.046Z,9.63
2023-04-18T07:53:35.977Z,11.20
2023-04-18T07:56:02.872Z,9.77
2023-04-18T07:58:30.566Z,10.25
2023-04-18T08:00:57.679Z,9.90
2023-04-18T08:03:24.596Z,9.38
2023-04-18T08:05:51.983Z,11.07
2023-04-18T08:08:18.767Z,12.52
2023-04-18T08:10:45.431Z,10.30
2023-04-18T08:13:14.750Z,13.02
2023-04-18T08:15:41.565Z,11.48
2023-04-18T08:18:08.857Z,9.43
2023-04-18T08:20:37.147Z,9.98
2023-04-18T08:23:08.625Z,9.02
2023-04-18T08:25:36.629Z,12.50
2023-04-18T08:28:04.322Z,8.00
2023-04-18T08:30:31.495Z,10.30
2023-04-18T08:33:00.499Z,10.38
2023-04-18T08:35:27.305Z,8.52
2023-04-18T08:37:53.906Z,9.70
2023-04-18T08:40:21.036Z,9.65
2023-04-18T08:42:48.283Z,7.93
2023-04-18T08:45:15.397Z,9.35
2023-04-18T08:47:42.632Z,7.97
2023-04-18T08:50:11.360Z,6.88
2023-04-18T08:52:39.892Z,9.23
2023-04-18T08:55:07.545Z,12.75
2023-04-18T08:57:36.399Z,7.85
2023-04-18T09:00:10.561Z,7.10
2023-04-18T09:02:43.057Z,6.35
2023-04-18T09:05:15.008Z,10.02
2023-04-18T09:07:42.719Z,8.55
2023-04-18T09:10:10.151Z,7.72
2023-04-18T09:12:50.673Z,8.07
2023-04-18T09:15:23.342Z,7.88
2023-04-18T09:17:56.599Z,8.95
2023-04-18T09:20:44.024Z,10.45
2023-04-18T09:23:15.009Z,10.13
2023-04-18T09:25:45.005Z,8.55
2023-04-18T09:28:33.481Z,9.45
2023-04-18T09:31:14.551Z,6.93
2023-04-18T09:33:52.812Z,6.80
2023-04-18T09:36:29.212Z,8.98
2023-04-18T09:38:57.222Z,8.48
2023-04-18T09:41:38.511Z,6.88
2023-04-18T09:44:15.520Z,9.05
2023-04-18T09:46:46.576Z,9.98
2023-04-18T09:49:14.041Z,7.90
2023-04-18T09:51:42.141Z,5.55
2023-04-18T09:54:17.005Z,9.57
2023-04-18T09:56:45.904Z,6.32
2023-04-18T09:59:17.735Z,7.80
2023-04-18T10:01:48.493Z,7.75
2023-04-18T10:04:17.039Z,7.13
2023-04-18T10:06:46.536Z,7.35
2023-04-18T10:09:14.703Z,7.95
2023-04-18T10:11:41.875Z,9.07
2023-04-18T10:14:13.336Z,7.80
2023-04-18T10:16:40.901Z,7.68
2023-04-18T10:19:30.198Z,6.53
2023-04-18T10:21:59.157Z,8.05
2023-04-18T10:24:53.568Z,6.05
2023-04-18T10:27:54.839Z,6.40
2023-04-18T10:30:41.323Z,4.93
2023-04-18T10:33:40.960Z,6.68
2023-04-18T10:36:08.972Z,5.45
2023-04-18T10:38:45.480Z,5.82
2023-04-18T10:41:28.995Z,5.90
2023-04-18T10:44:08.905Z,7.40
2023-04-18T10:46:40.116Z,7.60
2023-04-18T10:52:06.039Z,6.55
2023-04-18T10:54:37.062Z,9.25
2023-04-18T10:57:05.707Z,6.90
2023-04-18T10:59:34.829Z,7.95
2023-04-18T11:02:30.280Z,9.38
2023-04-18T11:05:04.547Z,6.93
2023-04-18T11:07:37.149Z,8.73
2023-04-18T11:10:05.716Z,7.15
2023-04-18T11:12:34.865Z,7.40
2023-04-18T11:15:09.454Z,6.40
2023-04-18T11:17:36.141Z,6.43
2023-04-18T11:20:09.167Z,7.88
2023-04-18T11:22:53.373Z,9.50
2023-04-18T11:25:23.678Z,6.90
2023-04-18T11:27:57.508Z,5.32
2023-04-18T11:30:24.157Z,6.95
2023-04-18T11:32:51.749Z,7.57
2023-04-18T11:35:19.656Z,7.10
2023-04-18T11:37:46.162Z,6.63
2023-04-18T11:40:13.847Z,6.03
2023-04-18T11:42:41.817Z,7.03
2023-04-18T11:45:15.506Z,6.50
2023-04-18T11:47:43.360Z,6.70
2023-04-18T11:50:12.810Z,6.00
2023-04-18T11:52:41.422Z,6.15
2023-04-18T11:55:14.649Z,5.00
2023-04-18T11:57:41.999Z,5.70
2023-04-18T12:00:10.762Z,4.57
2023-04-18T12:02:45.299Z,5.93
2023-04-18T12:05:14.971Z,6.53
2023-04-18T12:07:44.639Z,5.85
2023-04-18T12:10:19.986Z,9.25
2023-04-18T12:13:00.190Z,6.53
2023-04-18T12:15:28.768Z,5.25
2023-04-18T12:18:16.669Z,8.48
2023-04-18T12:20:53.998Z,6.32
2023-04-18T12:23:37.195Z,4.97
2023-04-18T12:26:05.821Z,6.05
2023-04-18T12:28:33.606Z,9.02
2023-04-18T12:31:00.429Z,6.38
2023-04-18T12:33:27.539Z,5.28
2023-04-18T12:35:54.636Z,5.35
2023-04-18T12:38:22.510Z,7.13
2023-04-18T12:40:51.043Z,6.63
2023-04-18T12:43:18.168Z,4.38
2023-04-18T12:45:46.194Z,4.13
2023-04-18T12:48:13.147Z,4.15
2023-04-18T12:50:39.613Z,7.18
2023-04-18T12:53:06.236Z,5.07
2023-04-18T12:55:32.986Z,5.70
2023-04-18T12:57:59.903Z,5.65
2023-04-18T13:00:29.876Z,5.45
2023-04-18T13:02:58.034Z,7.10
2023-04-18T13:05:29.932Z,5.10
2023-04-18T13:14:27.324Z,4.57
2023-04-18T13:20:51.936Z,7.50
2023-04-18T13:23:18.342Z,7.53
2023-04-18T13:25:45.080Z,6.25
2023-04-18T13:28:11.516Z,5.18
2023-04-18T13:30:38.072Z,4.90
2023-04-18T13:33:04.527Z,4.75
2023-04-18T13:35:31.479Z,10.93
2023-04-18T13:37:58.372Z,11.68
2023-04-18T13:40:25.233Z,4.97
2023-04-18T13:42:52.458Z,6.32
2023-04-18T13:45:19.411Z,6.30
2023-04-18T13:47:46.166Z,6.47
2023-04-18T13:50:13.246Z,6.32
2023-04-18T13:52:39.992Z,6.03
2023-04-18T13:55:07.120Z,6.38
2023-04-18T13:57:34.731Z,7.65
2023-04-18T14:00:01.740Z,7.53
2023-04-18T14:02:38.647Z,7.00
2023-04-18T14:05:06.887Z,7.70
2023-04-18T14:07:34.226Z,7.70
2023-04-18T14:10:00.917Z,7.15
2023-04-18T14:12:27.534Z,8.35
2023-04-18T14:14:53.981Z,15.63
2023-04-18T14:17:20.518Z,6.25
2023-04-18T14:19:47.933Z,6.68
2023-04-18T14:22:14.576Z,8.25
2023-04-18T14:24:41.429Z,9.95
2023-04-18T14:27:08.061Z,7.68
2023-04-18T14:29:34.798Z,8.43
2023-04-18T14:32:01.437Z,8.63
2023-04-18T14:34:28.015Z,9.27
2023-04-18T14:36:54.738Z,9.45
2023-04-18T14:39:21.623Z,7.18
2023-04-18T14:41:48.278Z,7.90
2023-04-18T14:44:14.875Z,7.70
2023-04-18T14:46:42.442Z,6.68
2023-04-18T14:49:09.010Z,6.95
2023-04-18T14:51:35.649Z,8.02
2023-04-18T14:54:02.232Z,7.65
2023-04-18T14:56:28.818Z,8.82
2023-04-18T14:58:55.483Z,9.77
2023-04-18T15:04:17.605Z,9.38
2023-04-18T15:06:45.427Z,8.18
2023-04-18T15:09:13.786Z,8.88
2023-04-18T15:11:40.372Z,7.13
2023-04-18T15:14:07.340Z,10.55
2023-04-18T15:16:35.447Z,10.95
2023-04-18T15:19:02.972Z,10.88
2023-04-18T15:21:29.916Z,6.85
2023-04-18T15:23:57.335Z,7.80
2023-04-18T15:26:24.206Z,7.72
2023-04-18T15:28:53.889Z,11.15
2023-04-18T15:31:21.746Z,9.38
2023-04-18T15:33:48.280Z,9.63
2023-04-18T15:36:14.791Z,12.93
2023-04-18T15:38:42.424Z,9.93
2023-04-18T15:41:09.996Z,9.50
2023-04-18T15:43:36.506Z,7.00
2023-04-18T15:46:04.118Z,9.02
2023-04-18T15:48:34.981Z,9.25
2023-04-18T15:51:01.617Z,9.80
2023-04-18T15:53:28.609Z,9.30
2023-04-18T15:55:55.731Z,8.88
2023-04-18T15:58:23.249Z,12.10
2023-04-18T16:00:51.301Z,8.95
2023-04-18T16:03:17.954Z,9.93
2023-04-18T16:05:44.636Z,9.93
2023-04-18T16:08:11.244Z,10.50
2023-04-18T16:10:38.047Z,9.10
2023-04-18T16:13:06.689Z,11.60
2023-04-18T16:15:41.450Z,10.43
2023-04-18T16:18:08.525Z,13.07
2023-04-18T16:20:35.834Z,9.40
2023-04-18T16:23:02.835Z,11.63
2023-04-18T16:25:29.333Z,11.55
2023-04-18T16:27:57.084Z,11.00
2023-04-18T16:30:23.571Z,9.70
2023-04-18T16:32:50.948Z,10.73
2023-04-18T16:35:18.003Z,9.68
2023-04-18T16:37:44.968Z,12.48
2023-04-18T16:40:12.659Z,11.18
2023-04-18T16:42:41.267Z,9.88
2023-04-18T16:45:09.200Z,11.23
2023-04-18T16:47:36.001Z,9.55
2023-04-18T16:50:02.603Z,6.68
2023-04-18T16:52:29.197Z,9.45
2023-04-18T16:54:55.939Z,8.52
2023-04-18T16:57:22.502Z,9.55
2023-04-18T16:59:49.041Z,9.00
2023-04-18T17:02:15.749Z,9.25
2023-04-18T17:04:42.807Z,9.95
2023-04-18T17:07:09.418Z,10.55
2023-04-18T17:09:35.917Z,11.05
2023-04-18T17:12:02.561Z,11.55
2023-04-18T17:14:29.164Z,13.85
2023-04-18T17:16:56.077Z,11.30
2023-04-18T17:19:23.029Z,11.50
2023-04-18T17:21:50.871Z,11.02
2023-04-18T17:24:18.694Z,13.98
2023-04-18T17:26:45.235Z,11.93
2023-04-18T17:29:12.956Z,10.65
2023-04-18T17:31:39.804Z,11.90
2023-04-18T17:34:06.452Z,9.85
2023-04-18T17:36:35.758Z,11.20
2023-04-18T17:39:11.634Z,10.57
2023-04-18T17:41:40.661Z,10.93
2023-04-18T17:44:08.285Z,9.43
2023-04-18T17:46:34.983Z,12.10
2023-04-18T17:49:02.772Z,10.57
2023-04-18T17:51:29.326Z,10.25
2023-04-18T17:53:55.841Z,9.15
2023-04-18T17:56:22.728Z,10.98
2023-04-18T17:58:49.878Z,9.38
2023-04-18T18:01:21.121Z,8.80
2023-04-18T18:03:48.715Z,8.13
2023-04-18T18:06:15.948Z,11.52
2023-04-18T18:08:43.240Z,8.43
2023-04-18T18:11:11.362Z,7.95
2023-04-18T18:13:40.812Z,8.82
2023-04-18T18:16:08.849Z,7.82
2023-04-18T18:18:36.368Z,7.80
2023-04-18T18:21:03.058Z,12.80
2023-04-18T18:23:31.967Z,10.50
2023-04-18T18:25:58.916Z,7.68
2023-04-18T18:28:25.634Z,7.22
2023-04-18T18:30:52.209Z,5.05
2023-04-18T18:33:19.011Z,7.22
2023-04-18T18:35:45.738Z,5.32
2023-04-18T18:38:12.237Z,4.63
2023-04-18T18:40:38.812Z,5.20
2023-04-18T18:43:05.579Z,4.47
2023-04-18T18:45:32.193Z,4.20
2023-04-18T18:47:58.860Z,4.30
2023-04-18T18:50:25.498Z,3.40
2023-04-18T18:52:52.063Z,4.00
2023-04-18T18:55:18.628Z,4.80
2023-04-18T18:57:45.178Z,4.50
2023-04-18T19:00:13.340Z,2.83
2023-04-18T19:02:40.207Z,4.78
2023-04-18T19:05:07.148Z,5.28
2023-04-18T19:07:33.685Z,5.47
2023-04-18T19:10:01.630Z,4.78
2023-04-18T19:12:29.084Z,3.67
2023-04-18T19:14:55.717Z,4.53
2023-04-18T19:17:24.867Z,4.70
2023-04-18T19:19:53.185Z,2.78
2023-04-18T19:22:19.805Z,4.75
2023-04-18T19:24:46.698Z,3.50
2023-04-18T19:27:13.246Z,3.90
2023-04-18T19:29:39.849Z,3.05
2023-04-18T19:32:06.741Z,3.50
2023-04-18T19:34:33.270Z,5.38
2023-04-18T19:37:01.555Z,3.67
2023-04-18T19:39:28.384Z,3.83
2023-04-18T19:41:54.916Z,3.58
2023-04-18T19:44:21.502Z,5.32
2023-04-18T19:46:48.080Z,5.90
2023-04-18T19:49:15.025Z,4.65
2023-04-18T19:51:42.061Z,4.32
2023-04-18T19:54:08.626Z,4.35
2023-04-18T19:56:35.136Z,5.82
2023-04-18T19:59:01.812Z,3.63
2023-04-18T20:01:28.390Z,2.85
2023-04-18T20:03:58.506Z,4.68
2023-04-18T20:06:26.826Z,4.00
2023-04-18T20:08:56.179Z,3.95
2023-04-18T20:11:22.861Z,3.92
2023-04-18T20:13:49.985Z,6.50
2023-04-18T20:16:17.266Z,2.53
2023-04-18T20:18:47.339Z,4.63
2023-04-18T20:21:14.121Z,4.45
2023-04-18T20:23:42.453Z,4.20
2023-04-18T20:26:09.304Z,4.90
2023-04-18T20:28:36.638Z,3.93
2023-04-18T20:31:03.818Z,4.88
2023-04-18T20:33:30.560Z,4.82
2023-04-18T20:35:58.904Z,5.35
2023-04-18T20:38:29.370Z,6.95
2023-04-18T20:40:58.004Z,4.53
2023-04-18T20:43:28.506Z,4.70
2023-04-18T20:45:57.645Z,5.28
2023-04-18T20:48:24.490Z,5.80
2023-04-18T20:50:51.445Z,5.00
2023-04-18T20:53:20.697Z,4.82
2023-04-18T20:55:48.153Z,6.95
2023-04-18T20:58:15.088Z,6.22
2023-04-18T21:00:41.758Z,5.22
2023-04-18T21:03:08.749Z,4.40
2023-04-18T21:05:35.709Z,5.35
2023-04-18T21:08:02.281Z,6.18
2023-04-18T21:10:28.857Z,6.28
2023-04-18T21:12:55.409Z,6.07
2023-04-18T21:15:22.344Z,6.88
2023-04-18T21:17:51.719Z,4.97
2023-04-18T21:20:18.924Z,6.72
2023-04-18T21:22:45.570Z,4.38
2023-04-18T21:25:12.439Z,5.57
2023-04-18T21:27:39.225Z,9.02
2023-04-18T21:30:06.736Z,5.88
2023-04-18T21:32:33.321Z,4.72
2023-04-18T21:35:02.741Z,4.32
2023-04-18T21:37:30.267Z,6.20
2023-04-18T21:39:56.744Z,4.63
2023-04-18T21:42:23.212Z,3.28
2023-04-18T21:44:49.748Z,6.53
2023-04-18T21:47:16.368Z,6.28
2023-04-18T21:49:42.940Z,6.60
2023-04-18T21:52:09.566Z,7.50
2023-04-18T21:54:36.085Z,5.68
2023-04-18T21:57:03.331Z,5.20
2023-04-18T21:59:30.587Z,4.28
2023-04-18T22:01:57.248Z,4.85
2023-04-18T22:04:26.196Z,5.22
2023-04-18T22:06:56.910Z,4.38
2023-04-18T22:09:23.915Z,5.40
2023-04-18T22:11:56.594Z,4.75
2023-04-18T22:14:24.819Z,5.43
2023-04-18T22:16:51.426Z,7.90
2023-04-18T22:19:19.405Z,6.20
2023-04-18T22:21:46.169Z,7.07
2023-04-18T22:24:12.868Z,4.18
2023-04-18T22:26:40.777Z,5.78
2023-04-18T22:29:07.575Z,7.28
2023-04-18T22:31:34.427Z,6.03
2023-04-18T22:34:01.162Z,5.38
2023-04-18T22:36:27.848Z,4.55
2023-04-18T22:38:54.459Z,6.53
2023-04-18T22:41:27.608Z,6.35
2023-04-18T22:43:54.708Z,6.47
2023-04-18T22:46:21.698Z,7.05
2023-04-18T22:48:49.263Z,9.30
2023-04-18T22:51:18.123Z,4.80
2023-04-18T22:53:44.736Z,8.00
2023-04-18T22:56:11.392Z,5.35
2023-04-18T22:58:38.120Z,5.50
2023-04-18T23:01:05.014Z,5.45
2023-04-18T23:03:34.400Z,7.15
2023-04-18T23:06:01.565Z,7.20
2023-04-18T23:08:29.195Z,4.55
2023-04-18T23:10:55.805Z,5.78
2023-04-18T23:13:22.321Z,4.28
2023-04-18T23:15:48.861Z,5.80
2023-04-18T23:18:15.526Z,7.47
2023-04-18T23:20:42.194Z,4.35
2023-04-18T23:23:10.110Z,5.05
2023-04-18T23:25:36.676Z,4.03
2023-04-18T23:28:03.275Z,4.10
2023-04-18T23:30:29.812Z,4.47
2023-04-18T23:32:56.578Z,5.45
2023-04-18T23:35:23.130Z,4.65
2023-04-18T23:37:50.170Z,3.88
2023-04-18T23:40:16.755Z,5.75
2023-04-18T23:42:43.845Z,4.47
2023-04-18T23:45:11.312Z,4.07
2023-04-18T23:47:38.011Z,3.40
2023-04-18T23:50:04.996Z,6.45
2023-04-18T23:52:31.508Z,4.57
2023-04-18T23:55:01.504Z,3.15
2023-04-18T23:57:28.421Z,2.42
2023-04-18T23:59:55.164Z,7.80
